Time;durP1;ratioP1;P1;durP2;ratioP2;P2;SDS_P1;SDS_P2;PMS_P1;PMS_P2;Temp;Humidity;BMP_temperature;BMP_pressure;BME280_temperature;BME280_humidity;BME280_pressure;Samples;Min_cycle;Max_cycle;Signal;HPM_P1;HPM_P2
2022/11/25 00:01:48;;;;;;;98.33;15.53;;;4.20;99.90;;;;;;5008259;28;20200;-50
2022/11/25 00:04:15;;;;;;;76.83;13.93;;;4.10;99.90;;;;;;5024707;28;20779;-49
2022/11/25 00:06:42;;;;;;;80.00;14.27;;;4.20;99.90;;;;;;5012766;28;20216;-50
2022/11/25 00:09:11;;;;;;;85.27;14.10;;;4.20;99.90;;;;;;5002731;28;20200;-49
2022/11/25 00:11:40;;;;;;;150.83;17.90;;;4.20;99.90;;;;;;5015566;28;20204;-47
2022/11/25 00:14:12;;;;;;;63.37;12.73;;;4.20;99.90;;;;;;5024205;28;20239;-49
2022/11/25 00:16:38;;;;;;;100.23;13.17;;;4.20;99.90;;;;;;5007751;28;20236;-50
2022/11/25 00:19:05;;;;;;;102.53;13.73;;;4.20;99.90;;;;;;5015259;28;20203;-46
2022/11/25 00:21:33;;;;;;;133.63;16.40;;;4.20;99.90;;;;;;5017780;28;20204;-51
2022/11/25 00:24:03;;;;;;;127.50;15.83;;;4.20;99.90;;;;;;5001532;28;20223;-48
2022/11/25 00:26:32;;;;;;;120.20;15.77;;;4.30;99.90;;;;;;5021632;28;20216;-48
2022/11/25 00:29:01;;;;;;;148.20;17.07;;;4.20;99.90;;;;;;5018909;28;20205;-46
2022/11/25 00:31:32;;;;;;;139.03;17.13;;;4.30;99.90;;;;;;5017090;28;20200;-47
2022/11/25 00:33:59;;;;;;;135.23;15.93;;;4.30;99.90;;;;;;5012712;28;20208;-46
2022/11/25 00:36:28;;;;;;;124.33;15.40;;;4.30;99.90;;;;;;5022276;28;20220;-52
2022/11/25 00:38:56;;;;;;;118.43;16.97;;;4.30;99.90;;;;;;4998960;28;20246;-49
2022/11/25 00:46:56;;;;;;;114.17;14.77;;;4.40;99.90;;;;;;5012975;28;20215;-47
2022/11/25 00:49:22;;;;;;;130.23;17.23;;;4.40;99.90;;;;;;5014925;28;20775;-52
2022/11/25 00:51:49;;;;;;;116.37;14.43;;;4.40;99.90;;;;;;5019499;28;20285;-48
2022/11/25 00:54:16;;;;;;;114.50;16.13;;;4.40;99.90;;;;;;5004622;28;20227;-47
2022/11/25 00:56:43;;;;;;;149.53;19.03;;;4.40;99.90;;;;;;5017677;28;20223;-50
2022/11/25 00:59:09;;;;;;;148.63;20.60;;;4.40;99.90;;;;;;5022197;28;20207;-47
2022/11/25 01:01:38;;;;;;;137.67;16.27;;;4.50;99.90;;;;;;5019452;28;20770;-47
2022/11/25 01:04:07;;;;;;;162.10;18.97;;;4.50;99.90;;;;;;5008445;28;20205;-48
2022/11/25 01:06:34;;;;;;;150.63;19.00;;;4.50;99.90;;;;;;5015148;28;20595;-51
2022/11/25 01:09:01;;;;;;;151.20;18.27;;;4.50;99.90;;;;;;5006342;28;20232;-46
2022/11/25 01:11:28;;;;;;;124.63;16.67;;;4.50;99.90;;;;;;5020646;28;20527;-49
2022/11/25 01:13:57;;;;;;;107.47;18.07;;;4.50;99.90;;;;;;5021199;28;20196;-46
2022/11/25 01:16:24;;;;;;;89.87;16.10;;;4.50;99.90;;;;;;5020304;28;20216;-50
2022/11/25 01:18:52;;;;;;;109.90;18.40;;;4.60;99.90;;;;;;5012145;28;20200;-50
2022/11/25 01:21:22;;;;;;;104.83;17.30;;;4.50;99.90;;;;;;5012468;28;20208;-47
2022/11/25 01:23:50;;;;;;;56.30;16.10;;;4.50;99.90;;;;;;5019953;28;20200;-47
2022/11/25 01:26:20;;;;;;;145.80;19.77;;;4.60;99.90;;;;;;5005143;28;20709;-49
2022/11/25 01:28:47;;;;;;;150.33;19.03;;;4.60;99.90;;;;;;5014968;28;20883;-46
2022/11/25 01:31:18;;;;;;;120.23;16.97;;;4.60;99.90;;;;;;5022144;28;20242;-47
2022/11/25 01:33:46;;;;;;;100.60;17.00;;;4.60;99.90;;;;;;5008949;28;20219;-46
2022/11/25 01:36:17;;;;;;;124.70;18.33;;;4.60;99.90;;;;;;5011760;28;20243;-47
2022/11/25 01:38:50;;;;;;;107.10;17.57;;;4.60;99.90;;;;;;5015700;28;20200;-46
2022/11/25 01:41:39;;;;;;;84.23;16.57;;;4.60;99.90;;;;;;5002366;28;20218;-49
2022/11/25 01:44:09;;;;;;;137.23;21.37;;;4.60;99.90;;;;;;5022015;28;20211;-47
2022/11/25 01:46:47;;;;;;;78.57;17.70;;;4.60;99.90;;;;;;5017596;28;20695;-48
2022/11/25 01:49:18;;;;;;;91.00;15.50;;;4.50;99.90;;;;;;5021319;28;20242;-49
2022/11/25 01:51:50;;;;;;;60.83;15.33;;;4.60;99.90;;;;;;5013087;28;20930;-46
2022/11/25 01:54:23;;;;;;;113.67;18.07;;;4.50;99.90;;;;;;5023088;28;20257;-47
2022/11/25 01:56:55;;;;;;;66.97;17.07;;;4.50;99.90;;;;;;5002802;28;20275;-48
2022/11/25 01:59:23;;;;;;;52.33;16.47;;;4.50;99.90;;;;;;5020338;28;20560;-49
2022/11/25 02:01:50;;;;;;;69.30;17.77;;;4.50;99.90;;;;;;5019995;28;20901;-50
2022/11/25 02:04:20;;;;;;;34.23;15.40;;;4.50;99.90;;;;;;5021641;28;20204;-46
2022/11/25 02:06:52;;;;;;;37.00;15.70;;;4.50;99.90;;;;;;5012855;28;20224;-46
2022/11/25 02:09:22;;;;;;;32.23;16.23;;;4.50;99.90;;;;;;5031672;28;20580;-50
2022/11/25 02:11:51;;;;;;;34.70;16.30;;;4.50;99.90;;;;;;4991891;28;20338;-46
2022/11/25 02:14:21;;;;;;;28.50;14.70;;;4.50;99.90;;;;;;5022231;28;20204;-48
2022/11/25 02:16:48;;;;;;;27.00;15.30;;;4.40;99.90;;;;;;5019077;28;20317;-46
2022/11/25 02:19:23;;;;;;;26.30;14.83;;;4.50;99.90;;;;;;5022480;28;20200;-48
2022/11/25 02:21:56;;;;;;;31.07;15.37;;;4.40;99.90;;;;;;5012992;28;20278;-46
2022/11/25 02:24:32;;;;;;;24.57;14.97;;;4.50;99.90;;;;;;5020615;28;20295;-46
2022/11/25 02:27:01;;;;;;;33.03;15.77;;;4.40;99.90;;;;;;5021879;28;20223;-47
2022/11/25 02:29:28;;;;;;;30.47;15.40;;;4.40;99.90;;;;;;5002660;28;20215;-49
2022/11/25 02:31:55;;;;;;;28.67;14.23;;;4.40;99.90;;;;;;5022421;28;20266;-46
2022/11/25 02:34:24;;;;;;;28.97;15.43;;;4.40;99.90;;;;;;5006532;28;20579;-50
2022/11/25 02:36:52;;;;;;;27.10;15.13;;;4.40;99.90;;;;;;5020215;28;20988;-46
2022/11/25 02:39:21;;;;;;;32.93;16.63;;;4.40;99.90;;;;;;5017036;28;20215;-48
2022/11/25 02:41:52;;;;;;;29.90;15.03;;;4.40;99.90;;;;;;5021252;28;20296;-50
2022/11/25 02:44:20;;;;;;;25.20;14.67;;;4.40;99.90;;;;;;5008362;28;20212;-50
2022/11/25 02:46:47;;;;;;;28.77;16.40;;;4.40;99.90;;;;;;5019590;28;20215;-48
2022/11/25 02:49:14;;;;;;;28.60;16.50;;;4.40;99.90;;;;;;5025115;28;20228;-48
2022/11/25 02:51:44;;;;;;;30.83;15.67;;;4.30;99.90;;;;;;5020251;28;20891;-47
2022/11/25 02:54:11;;;;;;;25.63;14.33;;;4.40;99.90;;;;;;5018336;28;20211;-46
2022/11/25 02:56:39;;;;;;;31.60;15.53;;;4.40;99.90;;;;;;5002090;28;20243;-47
2022/11/25 02:59:09;;;;;;;23.73;13.63;;;4.40;99.90;;;;;;5001733;28;20224;-46
2022/11/25 03:01:39;;;;;;;23.63;13.07;;;4.30;99.90;;;;;;5014984;28;20573;-51
2022/11/25 03:04:08;;;;;;;26.70;14.70;;;4.30;99.90;;;;;;5024171;28;20206;-48
2022/11/25 03:06:35;;;;;;;23.73;13.63;;;4.30;99.90;;;;;;5020964;28;20291;-51
2022/11/25 03:09:03;;;;;;;31.17;13.70;;;4.30;99.90;;;;;;5020022;28;20677;-46
2022/11/25 03:14:15;;;;;;;23.50;13.10;;;4.30;99.90;;;;;;4998943;28;20231;-46
2022/11/25 03:16:44;;;;;;;22.87;13.77;;;4.30;99.90;;;;;;5017112;28;20896;-51
2022/11/25 03:19:11;;;;;;;22.47;12.97;;;4.20;99.90;;;;;;5020916;28;20584;-48
2022/11/25 03:21:38;;;;;;;26.60;13.93;;;4.20;99.90;;;;;;5011970;28;20212;-52
2022/11/25 03:24:06;;;;;;;31.20;14.33;;;4.20;99.90;;;;;;5004659;28;20201;-52
2022/11/25 03:26:33;;;;;;;22.87;12.97;;;4.20;99.90;;;;;;5011128;28;20239;-49
2022/11/25 03:29:00;;;;;;;25.63;12.93;;;4.20;99.90;;;;;;5024384;28;20764;-46
2022/11/25 03:31:27;;;;;;;24.13;12.90;;;4.20;99.90;;;;;;5004710;28;20226;-49
2022/11/25 03:33:56;;;;;;;22.53;13.13;;;4.20;99.90;;;;;;5021573;28;20931;-46
2022/11/25 03:36:23;;;;;;;22.00;13.43;;;4.20;99.90;;;;;;5022909;28;20224;-50
2022/11/25 03:38:50;;;;;;;26.87;14.63;;;4.10;99.90;;;;;;5014468;28;20232;-49
2022/11/25 03:41:17;;;;;;;25.10;13.57;;;4.10;99.90;;;;;;5018519;28;20887;-47
2022/11/25 03:43:44;;;;;;;21.83;12.73;;;4.10;99.90;;;;;;5008980;28;20338;-47
2022/11/25 03:46:11;;;;;;;22.23;13.70;;;4.20;99.90;;;;;;5004351;28;20226;-47
2022/11/25 03:48:39;;;;;;;27.77;13.63;;;4.10;99.90;;;;;;5018998;28;20227;-48
2022/11/25 03:51:08;;;;;;;24.83;13.40;;;4.10;99.90;;;;;;5023397;28;20227;-47
2022/11/25 03:53:35;;;;;;;24.07;14.47;;;4.20;99.90;;;;;;5019939;28;20219;-50
2022/11/25 03:56:05;;;;;;;22.93;12.97;;;4.10;99.90;;;;;;5017390;28;20594;-46
2022/11/25 03:58:34;;;;;;;25.30;12.50;;;4.20;99.90;;;;;;5020250;28;20208;-50
2022/11/25 04:01:03;;;;;;;26.40;13.07;;;4.10;99.90;;;;;;5006788;28;20208;-47
2022/11/25 04:03:31;;;;;;;23.03;13.20;;;4.20;99.90;;;;;;5021829;28;20271;-50
2022/11/25 04:05:57;;;;;;;19.90;13.57;;;4.10;99.90;;;;;;5023360;28;20208;-49
2022/11/25 04:08:26;;;;;;;27.60;13.07;;;4.20;99.90;;;;;;5023319;28;20203;-47
2022/11/25 04:10:53;;;;;;;25.00;13.97;;;4.20;99.90;;;;;;5013400;28;20758;-48
2022/11/25 04:13:23;;;;;;;29.03;13.40;;;4.10;99.90;;;;;;5002659;28;20211;-49
2022/11/25 04:15:51;;;;;;;27.23;13.53;;;4.10;99.90;;;;;;5017798;28;20950;-46
2022/11/25 04:18:20;;;;;;;21.30;12.53;;;4.10;99.90;;;;;;5005207;28;20200;-50
2022/11/25 04:20:50;;;;;;;25.73;13.53;;;4.10;99.90;;;;;;5020239;28;20188;-45
2022/11/25 04:23:18;;;;;;;24.43;13.13;;;4.10;99.90;;;;;;5021434;28;20581;-46
2022/11/25 04:25:55;;;;;;;21.37;12.60;;;4.10;99.90;;;;;;5020545;28;20972;-46
2022/11/25 04:28:29;;;;;;;27.67;13.67;;;4.10;99.90;;;;;;5010600;28;20211;-48
2022/11/25 04:30:56;;;;;;;24.10;13.57;;;4.10;99.90;;;;;;5022508;28;20200;-47
2022/11/25 04:33:23;;;;;;;24.23;13.67;;;4.10;99.90;;;;;;5005193;28;20258;-49
2022/11/25 04:35:50;;;;;;;26.00;13.37;;;4.10;99.90;;;;;;5020048;28;20219;-52
2022/11/25 04:38:17;;;;;;;28.93;12.97;;;4.10;99.90;;;;;;5003337;28;20212;-48
2022/11/25 04:40:44;;;;;;;23.03;13.90;;;4.10;99.90;;;;;;5009456;28;20255;-49
2022/11/25 04:43:20;;;;;;;23.77;12.40;;;4.10;99.90;;;;;;5008360;28;20679;-46
2022/11/25 04:45:58;;;;;;;22.47;12.47;;;4.10;99.90;;;;;;5017008;28;20924;-46
2022/11/25 04:48:25;;;;;;;22.57;12.17;;;4.10;99.90;;;;;;5000324;28;20204;-50
2022/11/25 04:50:51;;;;;;;22.67;12.50;;;4.10;99.90;;;;;;5018774;28;20537;-47
2022/11/25 04:53:18;;;;;;;18.80;12.53;;;4.10;99.90;;;;;;5021776;28;20655;-50
2022/11/25 04:55:46;;;;;;;16.57;11.87;;;4.10;99.90;;;;;;5018658;28;20728;-46
2022/11/25 04:59:38;;;;;;;24.07;12.07;;;4.10;99.90;;;;;;5005328;28;20271;-45
2022/11/25 05:01:04;;;;;;;21.40;12.47;;;4.10;99.90;;;;;;5023576;28;20278;-47
2022/11/25 05:03:31;;;;;;;19.93;11.80;;;4.10;99.90;;;;;;5004020;28;20212;-52
2022/11/25 05:05:58;;;;;;;22.13;12.23;;;4.10;99.90;;;;;;5020231;28;20294;-47
2022/11/25 05:08:25;;;;;;;19.43;11.13;;;4.10;99.90;;;;;;5020381;28;20204;-51
2022/11/25 05:10:52;;;;;;;20.43;11.13;;;4.10;99.90;;;;;;5019702;28;20192;-51
2022/11/25 05:13:19;;;;;;;20.27;11.00;;;4.10;99.90;;;;;;5014920;28;20191;-47
2022/11/25 05:15:46;;;;;;;21.53;10.90;;;4.10;99.90;;;;;;5005620;28;20220;-49
2022/11/25 05:18:16;;;;;;;26.93;11.37;;;4.10;99.90;;;;;;5004170;28;20204;-48
2022/11/25 05:20:45;;;;;;;18.80;10.57;;;4.10;99.90;;;;;;5017469;28;20871;-45
2022/11/25 05:23:16;;;;;;;22.87;10.83;;;4.10;99.90;;;;;;5008569;28;20208;-46
2022/11/25 05:25:43;;;;;;;18.90;10.43;;;4.10;99.90;;;;;;5016374;28;20306;-45
2022/11/25 05:28:25;;;;;;;23.47;10.83;;;4.10;99.90;;;;;;5011038;28;20200;-46
2022/11/25 05:30:52;;;;;;;22.80;10.43;;;4.10;99.90;;;;;;5014993;28;20223;-47
2022/11/25 05:33:21;;;;;;;15.63;8.70;;;4.10;99.90;;;;;;5004477;28;20204;-50
2022/11/25 05:35:54;;;;;;;16.73;9.77;;;4.10;99.90;;;;;;5011816;28;20224;-47
2022/11/25 05:38:22;;;;;;;18.97;9.50;;;4.20;99.90;;;;;;5018790;28;20856;-46
2022/11/25 05:40:50;;;;;;;19.50;10.00;;;4.10;99.90;;;;;;5018560;28;20202;-46
2022/11/25 05:43:18;;;;;;;16.40;9.07;;;4.20;99.90;;;;;;5017273;28;20739;-47
2022/11/25 05:45:45;;;;;;;19.87;9.67;;;4.20;99.90;;;;;;5008061;28;20220;-46
2022/11/25 05:48:13;;;;;;;17.83;9.17;;;4.20;99.90;;;;;;5016102;28;20196;-49
2022/11/25 05:50:43;;;;;;;17.63;9.17;;;4.30;99.90;;;;;;4988542;28;20911;-46
2022/11/25 05:53:17;;;;;;;15.97;9.10;;;4.30;99.90;;;;;;5018168;28;20203;-50
2022/11/25 05:55:44;;;;;;;17.73;9.30;;;4.30;99.90;;;;;;5016257;28;20627;-47
2022/11/25 05:58:22;;;;;;;17.93;9.57;;;4.40;99.90;;;;;;5010964;28;20204;-49
2022/11/25 06:00:52;;;;;;;23.73;9.40;;;4.40;99.90;;;;;;5004686;28;20216;-45
2022/11/25 06:03:19;;;;;;;18.27;9.07;;;4.40;99.90;;;;;;5013495;28;20649;-48
2022/11/25 06:05:49;;;;;;;17.20;9.17;;;4.40;99.90;;;;;;4989922;28;20230;-50
2022/11/25 06:08:15;;;;;;;21.03;9.80;;;4.50;99.90;;;;;;5018633;28;20200;-46
2022/11/25 06:10:42;;;;;;;14.37;9.23;;;4.50;99.90;;;;;;5020233;28;20200;-46
2022/11/25 06:13:09;;;;;;;18.70;8.60;;;4.50;99.90;;;;;;5015784;28;20204;-48
2022/11/25 06:15:40;;;;;;;18.97;9.87;;;4.50;99.90;;;;;;5015294;28;20755;-48
2022/11/25 06:18:08;;;;;;;16.97;8.67;;;4.50;99.90;;;;;;5010866;28;20687;-46
2022/11/25 06:20:35;;;;;;;13.20;8.73;;;4.50;99.90;;;;;;5001943;28;20209;-50
2022/11/25 06:23:04;;;;;;;16.07;8.43;;;4.50;99.90;;;;;;5007447;28;20356;-48
2022/11/25 06:25:36;;;;;;;17.30;9.30;;;4.50;99.90;;;;;;5002225;28;20239;-47
2022/11/25 06:28:03;;;;;;;23.20;9.40;;;4.50;99.90;;;;;;5024502;28;20250;-46
2022/11/25 06:30:30;;;;;;;18.57;9.37;;;4.50;99.90;;;;;;5010488;28;20270;-49
2022/11/25 06:33:14;;;;;;;20.07;9.63;;;4.50;99.90;;;;;;5016981;28;20192;-50
2022/11/25 06:35:44;;;;;;;17.70;9.33;;;4.50;99.90;;;;;;5001006;28;20236;-49
2022/11/25 06:38:13;;;;;;;28.23;9.27;;;4.50;99.90;;;;;;5013213;28;20204;-45
2022/11/25 06:40:40;;;;;;;19.73;10.33;;;4.50;99.90;;;;;;5011989;28;21013;-49
2022/11/25 06:43:07;;;;;;;14.10;8.80;;;4.50;99.90;;;;;;5022698;28;20692;-48
2022/11/25 06:45:33;;;;;;;19.40;9.23;;;4.50;99.90;;;;;;5011719;28;20227;-52
2022/11/25 06:48:00;;;;;;;20.03;10.60;;;4.50;99.90;;;;;;5018515;28;20243;-47
2022/11/25 06:50:27;;;;;;;18.30;9.03;;;4.50;99.90;;;;;;5003232;28;20208;-51
2022/11/25 06:52:53;;;;;;;23.70;9.33;;;4.50;99.90;;;;;;4995351;28;20218;-49
2022/11/25 06:55:22;;;;;;;15.13;9.67;;;4.50;99.90;;;;;;5018031;28;20590;-51
2022/11/25 06:57:49;;;;;;;15.10;8.27;;;4.50;99.90;;;;;;5028430;28;20222;-48
2022/11/25 07:00:16;;;;;;;21.37;8.80;;;4.50;99.90;;;;;;5021994;28;20259;-47
2022/11/25 07:02:46;;;;;;;20.40;9.23;;;4.50;99.90;;;;;;5015232;28;20199;-46
2022/11/25 07:05:12;;;;;;;20.00;9.43;;;4.50;99.90;;;;;;5022602;28;20223;-47
2022/11/25 07:07:39;;;;;;;16.83;8.63;;;4.60;99.90;;;;;;5003557;28;20201;-45
2022/11/25 07:10:08;;;;;;;17.90;8.80;;;4.60;99.90;;;;;;5024143;28;20652;-47
2022/11/25 07:12:36;;;;;;;17.27;9.33;;;4.60;99.90;;;;;;5014745;28;20220;-46
2022/11/25 07:15:03;;;;;;;14.43;8.77;;;4.60;99.90;;;;;;5016695;28;20204;-47
2022/11/25 07:17:30;;;;;;;22.10;9.23;;;4.60;99.90;;;;;;5019949;28;20243;-46
2022/11/25 07:19:56;;;;;;;17.37;8.13;;;4.60;99.90;;;;;;5019891;28;20660;-45
2022/11/25 07:22:24;;;;;;;12.63;8.10;;;4.70;99.90;;;;;;5018903;28;20206;-46
2022/11/25 07:24:51;;;;;;;17.27;8.10;;;4.60;99.90;;;;;;5005760;28;20212;-45
2022/11/25 07:27:18;;;;;;;16.30;8.50;;;4.60;99.90;;;;;;5021833;28;20303;-48
2022/11/25 07:29:48;;;;;;;11.27;7.97;;;4.70;99.90;;;;;;5010029;28;20203;-45
2022/11/25 07:32:15;;;;;;;14.53;8.83;;;4.70;99.90;;;;;;5008367;28;20204;-50
2022/11/25 07:34:41;;;;;;;18.20;8.67;;;4.70;99.90;;;;;;5004248;28;20207;-48
2022/11/25 07:37:08;;;;;;;19.53;7.93;;;4.70;99.90;;;;;;5012260;28;20228;-47
2022/11/25 07:39:35;;;;;;;20.40;8.73;;;4.70;99.90;;;;;;4998212;28;20707;-47
2022/11/25 07:42:01;;;;;;;14.93;9.47;;;4.70;99.90;;;;;;5017075;28;20223;-45
2022/11/25 07:44:28;;;;;;;18.43;8.60;;;4.70;99.90;;;;;;5020103;28;20196;-45
2022/11/25 07:47:05;;;;;;;22.30;7.90;;;4.70;99.90;;;;;;5017025;28;20208;-46
2022/11/25 07:49:32;;;;;;;12.70;7.93;;;4.70;99.90;;;;;;5021638;28;20275;-46
2022/11/25 07:52:01;;;;;;;16.50;7.93;;;4.70;99.90;;;;;;5017732;28;20200;-47
2022/11/25 07:54:28;;;;;;;14.07;8.10;;;4.70;99.90;;;;;;5003538;28;20204;-46
2022/11/25 07:56:55;;;;;;;14.10;8.17;;;4.70;99.90;;;;;;5014070;28;20215;-49
2022/11/25 07:59:23;;;;;;;16.23;8.10;;;4.70;99.90;;;;;;5021986;28;20199;-51
2022/11/25 08:01:50;;;;;;;10.83;7.17;;;4.80;99.90;;;;;;5017933;28;20204;-47
2022/11/25 08:04:19;;;;;;;10.03;7.67;;;4.80;99.90;;;;;;5020857;28;20188;-45
2022/11/25 08:06:47;;;;;;;17.37;8.20;;;4.80;99.90;;;;;;5017081;28;20215;-48
2022/11/25 08:09:18;;;;;;;14.43;7.57;;;4.90;99.90;;;;;;5019584;28;20210;-49
2022/11/25 08:11:45;;;;;;;16.00;8.00;;;4.90;99.90;;;;;;5006017;28;20219;-53
2022/11/25 08:14:12;;;;;;;17.60;7.73;;;4.90;99.90;;;;;;5020148;28;20192;-54
2022/11/25 08:16:40;;;;;;;15.63;8.33;;;4.90;99.90;;;;;;5019853;28;20687;-54
2022/11/25 08:19:10;;;;;;;20.73;8.00;;;4.90;99.90;;;;;;5017402;28;20380;-49
2022/11/25 08:21:38;;;;;;;13.33;7.17;;;5.00;99.90;;;;;;5014841;28;20204;-55
2022/11/25 08:24:05;;;;;;;13.30;6.43;;;5.00;99.90;;;;;;5005291;28;20473;-52
2022/11/25 08:26:36;;;;;;;13.97;7.00;;;5.00;99.90;;;;;;4992770;28;20224;-54
2022/11/25 08:29:05;;;;;;;13.63;7.63;;;5.10;99.90;;;;;;4999178;28;20287;-51
2022/11/25 08:31:34;;;;;;;13.53;6.40;;;5.10;99.90;;;;;;5017272;28;20887;-52
2022/11/25 08:34:06;;;;;;;14.27;7.43;;;5.20;99.90;;;;;;5014065;28;20198;-51
2022/11/25 08:36:36;;;;;;;13.60;7.37;;;5.20;99.90;;;;;;5026947;28;20233;-56
2022/11/25 08:39:07;;;;;;;15.33;6.60;;;5.30;99.90;;;;;;5011832;28;20974;-49
2022/11/25 08:41:37;;;;;;;13.97;6.70;;;5.30;99.90;;;;;;4997456;28;20208;-53
2022/11/25 08:44:06;;;;;;;14.93;7.03;;;5.40;99.90;;;;;;5013668;28;20203;-55
2022/11/25 08:46:36;;;;;;;16.07;6.70;;;5.40;99.90;;;;;;5015448;28;20221;-53
2022/11/25 08:49:04;;;;;;;18.17;6.53;;;5.50;99.90;;;;;;5008531;28;20188;-56
2022/11/25 08:51:33;;;;;;;8.93;6.60;;;5.50;99.90;;;;;;5019576;28;20200;-55
2022/11/25 08:54:00;;;;;;;11.47;5.87;;;5.50;99.90;;;;;;5010714;28;20196;-51
2022/11/25 08:56:29;;;;;;;12.37;6.20;;;5.60;99.90;;;;;;5017709;28;20216;-51
2022/11/25 08:58:55;;;;;;;12.13;6.77;;;5.60;99.90;;;;;;4989457;28;20216;-51
2022/11/25 09:01:24;;;;;;;17.20;6.80;;;5.60;99.90;;;;;;5013932;28;20207;-54
2022/11/25 09:03:54;;;;;;;12.17;5.93;;;5.70;99.90;;;;;;5008422;28;20208;-51
2022/11/25 09:06:22;;;;;;;11.30;6.53;;;5.70;99.90;;;;;;5002912;28;20223;-53
2022/11/25 09:08:49;;;;;;;12.53;6.10;;;5.70;99.90;;;;;;5014970;28;20198;-52
2022/11/25 09:11:17;;;;;;;17.30;6.03;;;5.70;99.90;;;;;;5011957;28;20211;-46
2022/11/25 09:13:45;;;;;;;15.83;5.47;;;5.70;99.90;;;;;;4996685;28;20227;-52
2022/11/25 09:16:12;;;;;;;11.13;6.20;;;5.80;99.90;;;;;;5014640;28;20226;-50
2022/11/25 09:18:39;;;;;;;16.90;8.50;;;5.80;99.90;;;;;;5014611;28;20285;-49
2022/11/25 09:21:10;;;;;;;14.57;8.90;;;5.80;99.90;;;;;;5009856;28;20196;-45
2022/11/25 09:23:38;;;;;;;12.53;6.00;;;5.80;99.90;;;;;;5012285;28;20196;-51
2022/11/25 09:26:06;;;;;;;10.43;5.67;;;5.80;99.90;;;;;;4999952;28;20240;-46
2022/11/25 09:28:33;;;;;;;12.50;5.67;;;5.90;99.90;;;;;;5003634;28;20194;-48
2022/11/25 09:31:08;;;;;;;11.20;6.17;;;5.90;99.90;;;;;;5004476;28;21784;-49
2022/11/25 09:33:35;;;;;;;9.13;5.70;;;5.90;99.90;;;;;;5014691;28;20200;-46
2022/11/25 09:36:04;;;;;;;14.87;6.47;;;5.90;99.90;;;;;;5012672;28;20216;-51
2022/11/25 09:38:32;;;;;;;9.23;5.80;;;5.90;99.90;;;;;;5011973;28;20691;-50
2022/11/25 09:41:03;;;;;;;12.43;5.07;;;5.90;99.90;;;;;;5015077;28;20188;-45
2022/11/25 09:46:50;;;;;;;12.53;5.30;;;6.00;99.90;;;;;;5005312;28;20222;-47
2022/11/25 09:49:38;;;;;;;12.83;5.10;;;5.90;99.90;;;;;;5017970;28;20566;-46
2022/11/25 09:52:15;;;;;;;14.60;5.10;;;6.00;99.90;;;;;;5012502;28;20214;-47
2022/11/25 09:54:48;;;;;;;12.60;5.53;;;6.00;99.90;;;;;;5015987;28;20199;-48
2022/11/25 09:57:25;;;;;;;12.83;5.10;;;5.90;99.90;;;;;;5020373;28;20218;-47
2022/11/25 10:00:02;;;;;;;8.27;5.30;;;5.90;99.90;;;;;;5018946;28;20188;-47
2022/11/25 10:02:45;;;;;;;11.97;5.03;;;5.90;99.90;;;;;;4992752;28;20339;-50
2022/11/25 10:05:19;;;;;;;16.77;5.33;;;5.90;99.90;;;;;;5022470;28;20192;-46
2022/11/25 10:07:50;;;;;;;15.63;5.97;;;5.90;99.90;;;;;;5012444;28;20802;-49
2022/11/25 10:10:24;;;;;;;13.77;5.30;;;6.00;99.90;;;;;;5016638;28;20213;-51
2022/11/25 10:12:53;;;;;;;13.00;5.20;;;6.00;99.90;;;;;;5007466;28;20231;-50
2022/11/25 10:15:26;;;;;;;11.00;6.30;;;6.00;99.90;;;;;;5020201;28;20247;-49
2022/11/25 10:17:58;;;;;;;9.73;5.23;;;6.00;99.90;;;;;;5002152;28;20219;-47
2022/11/25 10:20:29;;;;;;;10.87;5.87;;;6.00;99.90;;;;;;5019238;28;20255;-50
2022/11/25 10:22:59;;;;;;;11.47;5.73;;;6.00;99.90;;;;;;5015002;28;20200;-46
2022/11/25 10:25:31;;;;;;;17.83;6.37;;;6.00;99.90;;;;;;5010055;28;20243;-50
2022/11/25 10:28:00;;;;;;;14.67;6.00;;;6.00;99.90;;;;;;5011176;28;20250;-52
2022/11/25 10:30:35;;;;;;;10.27;5.33;;;6.00;99.90;;;;;;4997598;28;20319;-48
2022/11/25 10:33:12;;;;;;;8.63;5.53;;;6.00;99.90;;;;;;4998111;28;20211;-46
2022/11/25 10:35:45;;;;;;;14.77;6.13;;;6.10;99.90;;;;;;5006830;28;20212;-49
2022/11/25 10:38:16;;;;;;;11.90;5.60;;;6.10;99.90;;;;;;5009859;28;20330;-49
2022/11/25 10:40:47;;;;;;;13.87;6.33;;;6.10;99.90;;;;;;5013293;28;20287;-48
2022/11/25 10:43:15;;;;;;;11.23;5.60;;;6.10;99.90;;;;;;5011871;28;20196;-51
2022/11/25 10:45:48;;;;;;;12.50;5.50;;;6.10;99.90;;;;;;5004330;28;20282;-50
2022/11/25 10:48:29;;;;;;;15.10;6.20;;;6.20;99.90;;;;;;5004516;28;20691;-50
2022/11/25 10:51:07;;;;;;;14.03;5.57;;;6.20;99.90;;;;;;5009927;28;20284;-47
2022/11/25 10:53:34;;;;;;;8.63;5.70;;;6.30;99.90;;;;;;5012879;28;20215;-49
2022/11/25 10:56:03;;;;;;;10.13;6.33;;;6.30;99.90;;;;;;5014297;28;20744;-48
2022/11/25 10:58:33;;;;;;;8.17;5.73;;;6.30;99.90;;;;;;5009663;28;20689;-45
2022/11/25 11:01:07;;;;;;;12.33;6.30;;;6.30;99.90;;;;;;5007184;28;20214;-39
2022/11/25 11:03:36;;;;;;;14.77;6.30;;;6.30;99.90;;;;;;4996066;28;20220;-44
2022/11/25 11:06:03;;;;;;;16.97;6.00;;;6.40;99.90;;;;;;5011361;28;20743;-43
2022/11/25 11:08:37;;;;;;;17.77;7.00;;;6.30;99.90;;;;;;5013202;28;20188;-46
2022/11/25 11:11:19;;;;;;;11.03;6.00;;;6.30;99.90;;;;;;5016692;28;20206;-41
2022/11/25 11:13:49;;;;;;;14.30;7.30;;;6.40;99.90;;;;;;5013245;28;20287;-41
2022/11/25 11:16:25;;;;;;;10.90;6.83;;;6.40;99.90;;;;;;5008702;28;20278;-42
2022/11/25 11:18:55;;;;;;;15.37;6.77;;;6.40;99.90;;;;;;5001636;28;20222;-42
2022/11/25 11:21:28;;;;;;;16.20;7.83;;;6.40;99.90;;;;;;5003071;28;20219;-43
2022/11/25 11:23:58;;;;;;;14.37;7.23;;;6.40;99.90;;;;;;5011538;28;20965;-42
2022/11/25 11:26:27;;;;;;;22.73;11.33;;;6.40;99.90;;;;;;4997691;28;20256;-42
2022/11/25 11:29:00;;;;;;;18.30;9.47;;;6.30;99.90;;;;;;5015494;28;20329;-43
2022/11/25 11:31:32;;;;;;;17.80;8.30;;;6.40;99.90;;;;;;5006973;28;20196;-45
2022/11/25 11:34:08;;;;;;;15.57;7.17;;;6.40;99.90;;;;;;4990505;28;20212;-45
2022/11/25 11:36:46;;;;;;;13.40;7.67;;;6.40;99.90;;;;;;5007913;28;20231;-42
2022/11/25 11:39:44;;;;;;;15.80;8.50;;;6.40;99.90;;;;;;5010907;28;22226;-42
2022/11/25 11:42:19;;;;;;;16.43;7.60;;;6.40;99.90;;;;;;5015187;28;20243;-44
2022/11/25 11:45:01;;;;;;;14.50;8.87;;;6.40;99.90;;;;;;5017052;28;20676;-43
2022/11/25 11:47:39;;;;;;;16.97;7.67;;;6.40;99.90;;;;;;5003485;28;20222;-44
2022/11/25 11:50:24;;;;;;;19.17;8.20;;;6.40;99.90;;;;;;4992447;28;20287;-41
2022/11/25 11:53:01;;;;;;;17.17;7.63;;;6.50;99.90;;;;;;4996714;28;20814;-43
2022/11/25 11:55:39;;;;;;;13.67;7.50;;;6.50;99.90;;;;;;5013215;28;20819;-44
2022/11/25 11:58:14;;;;;;;12.13;6.90;;;6.50;99.90;;;;;;5012255;28;20726;-44
2022/11/25 12:00:50;;;;;;;16.17;7.60;;;6.50;99.90;;;;;;5007825;28;20188;-42
2022/11/25 12:03:21;;;;;;;14.13;7.50;;;6.50;99.90;;;;;;5015674;28;20245;-42
2022/11/25 12:05:53;;;;;;;17.27;7.57;;;6.50;99.90;;;;;;4991273;28;20223;-42
2022/11/25 12:08:29;;;;;;;15.03;7.20;;;6.50;99.90;;;;;;5003880;28;20672;-44
2022/11/25 12:11:00;;;;;;;17.63;8.00;;;6.50;99.90;;;;;;5017723;28;20210;-42
2022/11/25 12:13:35;;;;;;;15.23;7.00;;;6.50;99.90;;;;;;4999418;28;20900;-47
2022/11/25 12:16:09;;;;;;;18.17;8.07;;;6.60;99.90;;;;;;5019731;28;20708;-47
2022/11/25 12:18:44;;;;;;;14.37;8.10;;;6.60;99.90;;;;;;5018469;28;20218;-47
2022/11/25 12:21:28;;;;;;;17.20;8.07;;;6.70;99.90;;;;;;4997805;28;20207;-45
2022/11/25 12:24:03;;;;;;;17.00;8.10;;;6.60;99.90;;;;;;5005471;28;20880;-45
2022/11/25 12:26:38;;;;;;;14.57;7.90;;;6.70;99.90;;;;;;4999761;28;20227;-44
2022/11/25 12:29:12;;;;;;;18.57;6.87;;;6.70;99.90;;;;;;5013049;28;20672;-46
2022/11/25 12:31:45;;;;;;;15.53;7.37;;;6.70;99.90;;;;;;5013948;28;20195;-47
2022/11/25 12:34:20;;;;;;;13.40;7.57;;;6.80;99.90;;;;;;5015313;28;20222;-44
2022/11/25 12:36:48;;;;;;;14.53;7.57;;;6.80;99.90;;;;;;5001716;28;20227;-48
2022/11/25 12:39:21;;;;;;;16.90;8.47;;;6.90;99.90;;;;;;4999177;28;20224;-45
2022/11/25 12:41:53;;;;;;;10.53;7.43;;;6.90;99.90;;;;;;5012059;28;20204;-44
2022/11/25 12:44:24;;;;;;;13.00;7.10;;;6.90;99.90;;;;;;5006123;28;20199;-46
2022/11/25 12:46:53;;;;;;;16.80;7.63;;;7.00;99.90;;;;;;5016926;28;20231;-45
2022/11/25 12:49:23;;;;;;;14.97;7.70;;;7.00;99.90;;;;;;4999003;28;20699;-45
2022/11/25 12:52:24;;;;;;;17.37;7.47;;;7.00;99.90;;;;;;5001231;28;20199;-46
2022/11/25 12:55:05;;;;;;;15.47;7.80;;;7.10;99.90;;;;;;5002179;28;20713;-47
2022/11/25 12:58:07;;;;;;;15.83;7.57;;;7.10;99.90;;;;;;5005438;28;20184;-44
2022/11/25 13:00:50;;;;;;;13.43;7.90;;;7.10;99.90;;;;;;5007008;28;20219;-44
2022/11/25 13:03:55;;;;;;;13.63;7.63;;;7.10;99.90;;;;;;5011786;28;20737;-43
2022/11/25 13:06:52;;;;;;;13.73;7.07;;;7.20;99.90;;;;;;5008041;28;20224;-47
2022/11/25 13:09:38;;;;;;;18.07;7.80;;;7.20;99.90;;;;;;5015685;28;20192;-43